Terminal Aerodrome Forecast
Issued by NWS

Home | Current Version | Previous Version | Text Only | Print | Product List | Glossary On
Versions: 1 2 3 4 5 6 7 8 9 10 11 12 13
000
FTUS45 KVEF 301100
TAFVGT
TAF
KVGT 301128Z 3012/0112 VRB05KT P6SM SKC
     FM302000 15007KT P6SM SCT250
     FM010400 34005KT P6SM FEW250=

USA.gov is the U.S. government's official web portal to all federal, state and local government web resources and services.